Bradenton, FL (34281)

3:44 AM EDT on May 26, 2015 (GMT -0400)
Manatee at 26th St W | | Change Station
CLOSE
Current Station
Personal Weather Station
Location: Bradenton, FL
Elevation: 33 ft
Nearby Weather Stations

Elev 33 ft 27.50 °N, 82.59 °W | Updated 20 seconds ago

Mostly Cloudy
Mostly Cloudy
74.7 °F
Feels Like 72 °F
N
0.0
Wind Variable Wind from SE
Gusts 0.0 mph

Today
High -- | Low -- °F
--% Chance of Precip.
Yesterday
High -- | Low -- °F
Precip. -- in
6:36 AM 8:18 PM
First Quarter, 56% visible
Pressure 30.12 in
Visibility 10.0 miles
Clouds Clear
Heat Index 72 °F
Dew Point 74 °F
Humidity 97%
Rainfall 0.00 in
Snow Depth Not available.
UV 0.0 out of 12
Pollen 4.10 out of 12
Air Quality Not available.
Flu Activity Sporadic
METAR KSRQ 260653Z AUTO 11007KT 10SM CLR 24/22 A3012 RMK AO2 SLP197 T02440222

More Conditions Fewer Conditions

Pressure 30.12 in
Visibility 10.0 miles
Clouds Clear
Heat Index 72 °F
Dew Point 74 °F
Humidity 97%
Rainfall 0.00 in
Snow Depth Not available.
UV 0.0 out of 12
Pollen 4.10 out of 12
Air Quality Not available.
Flu Activity Sporadic
METAR KSRQ 260653Z AUTO 11007KT 10SM CLR 24/22 A3012 RMK AO2 SLP197 T02440222

More Conditions Fewer Conditions

10-Day Weather Forecast

Almanac

Astronomy

May. 26, 2015 Rise Set
Actual Time
Civil Twilight
Nautical Twilight
Astronomical Twilight
Moon
Length of Visible Light
Length of Day
Tomorrow will be .
, % of the Moon is Illuminated

Today's Extremes

State Highs State Lows

Community

WunderPhotos

Upload Photos

1,824,302 photos uploaded!

WunderBlogs® & News

Nearby

Air Quality

  Air Quality AQ Index Pollutant
Not available.

Snow Depth

Station Depth Elevation

Earthquake Activity

City Distance Mag. Time & Date
Minimum magnitude displayed is 2.5.

Coastal Water Temperatures

Place Temperature

Stations

Nearby Weather Stations

Station Location Temp. Windchill Dew Point Humidity Wind Precip. Elev Updated Type